createdAt,value
2024-03-21T00:01:08.118Z,60.99
2024-03-21T00:04:33.672Z,61.15
2024-03-21T00:07:58.921Z,61.27
2024-03-21T00:11:24.638Z,61.35
2024-03-21T00:14:50.034Z,61.47
2024-03-21T00:18:16.170Z,61.61
2024-03-21T00:21:41.528Z,61.69
2024-03-21T00:25:07.434Z,61.70
2024-03-21T00:28:32.973Z,61.68
2024-03-21T00:31:58.389Z,61.96
2024-03-21T00:35:23.768Z,62.04
2024-03-21T00:38:49.366Z,62.06
2024-03-21T00:42:14.649Z,62.32
2024-03-21T00:45:39.954Z,62.27
2024-03-21T00:49:05.127Z,62.50
2024-03-21T00:52:30.985Z,62.41
2024-03-21T00:55:56.738Z,62.22
2024-03-21T00:59:22.735Z,62.29
2024-03-21T01:02:48.889Z,62.30
2024-03-21T01:06:13.885Z,62.40
2024-03-21T01:09:39.012Z,62.49
2024-03-21T01:13:04.252Z,62.53
2024-03-21T01:16:30.119Z,62.54
2024-03-21T01:19:55.395Z,62.64
2024-03-21T01:23:20.496Z,62.66
2024-03-21T01:26:45.645Z,62.71
2024-03-21T01:30:13.524Z,62.67
2024-03-21T01:33:38.841Z,62.92
2024-03-21T01:37:04.210Z,62.79
2024-03-21T01:40:29.431Z,63.11
2024-03-21T01:43:54.637Z,63.14
2024-03-21T01:47:19.980Z,63.32
2024-03-21T01:50:45.314Z,63.25
2024-03-21T01:54:12.113Z,63.37
2024-03-21T01:57:37.812Z,63.49
2024-03-21T02:01:21.741Z,63.59
2024-03-21T02:04:47.361Z,63.61
2024-03-21T02:08:12.491Z,63.47
2024-03-21T02:11:37.686Z,63.65
2024-03-21T02:15:02.803Z,63.60
2024-03-21T02:18:28.172Z,63.53
2024-03-21T02:22:10.832Z,63.64
2024-03-21T02:25:36.340Z,63.45
2024-03-21T02:29:01.448Z,63.53
2024-03-21T02:32:26.770Z,63.50
2024-03-21T02:35:54.517Z,63.55
2024-03-21T02:39:19.787Z,63.49
2024-03-21T02:42:44.795Z,63.82
2024-03-21T02:46:09.740Z,63.75
2024-03-21T02:49:34.837Z,63.75
2024-03-21T02:53:00.150Z,63.76
2024-03-21T02:56:25.206Z,63.92
2024-03-21T02:59:50.430Z,63.76
2024-03-21T03:03:15.540Z,63.96
2024-03-21T03:06:40.731Z,63.96
2024-03-21T03:10:06.250Z,64.09
2024-03-21T03:13:31.384Z,64.20
2024-03-21T03:16:56.635Z,64.09
2024-03-21T03:20:21.639Z,64.47
2024-03-21T03:23:46.891Z,64.28
2024-03-21T03:27:12.416Z,64.46
2024-03-21T03:30:37.976Z,64.43
2024-03-21T03:34:20.749Z,64.42
2024-03-21T03:37:46.204Z,64.44
2024-03-21T03:41:11.103Z,64.53
2024-03-21T03:44:36.528Z,64.46
2024-03-21T03:48:01.684Z,64.41
2024-03-21T03:51:26.734Z,64.49
2024-03-21T03:54:51.730Z,64.46
2024-03-21T03:58:16.897Z,64.70
2024-03-21T04:01:42.722Z,64.84
2024-03-21T04:05:10.991Z,64.75
2024-03-21T04:08:36.190Z,64.80
2024-03-21T04:12:01.244Z,64.97
2024-03-21T04:15:26.582Z,64.98
2024-03-21T04:18:51.823Z,64.96
2024-03-21T04:22:17.107Z,65.04
2024-03-21T04:25:42.726Z,65.23
2024-03-21T04:29:09.299Z,65.35
2024-03-21T04:32:34.472Z,65.62
2024-03-21T04:36:01.310Z,65.56
2024-03-21T04:39:26.579Z,65.67
2024-03-21T04:42:52.782Z,65.72
2024-03-21T04:46:18.044Z,65.61
2024-03-21T04:49:43.330Z,65.86
2024-03-21T04:53:09.479Z,65.74
2024-03-21T04:56:34.776Z,66.05
2024-03-21T05:00:01.297Z,65.92
2024-03-21T05:03:26.792Z,66.03
2024-03-21T05:06:52.679Z,65.95
2024-03-21T05:10:18.378Z,66.04
2024-03-21T05:13:47.598Z,66.11
2024-03-21T05:17:15.985Z,66.03
2024-03-21T05:20:41.379Z,66.24
2024-03-21T05:24:07.446Z,65.99
2024-03-21T05:27:32.733Z,66.14
2024-03-21T05:30:57.813Z,66.24
2024-03-21T05:34:26.941Z,66.25
2024-03-21T05:37:53.200Z,66.41
2024-03-21T05:41:18.376Z,66.63
2024-03-21T05:44:44.503Z,66.59
2024-03-21T05:48:10.738Z,66.80
2024-03-21T05:51:36.463Z,66.69
2024-03-21T05:55:02.562Z,66.83
2024-03-21T05:58:27.971Z,66.86
2024-03-21T06:01:53.118Z,66.85
2024-03-21T06:05:19.515Z,67.01
2024-03-21T06:08:45.533Z,67.01
2024-03-21T06:12:11.329Z,67.08
2024-03-21T06:15:39.654Z,66.99
2024-03-21T06:19:05.692Z,66.88
2024-03-21T06:22:31.069Z,67.05
2024-03-21T06:25:58.591Z,67.16
2024-03-21T06:29:28.495Z,67.17
2024-03-21T06:32:54.432Z,67.14
2024-03-21T06:36:20.293Z,67.18
2024-03-21T06:39:45.640Z,67.12
2024-03-21T06:43:11.382Z,67.21
2024-03-21T06:46:39.609Z,67.43
2024-03-21T06:50:05.671Z,67.54
2024-03-21T06:53:30.926Z,67.57
2024-03-21T06:56:55.878Z,67.62
2024-03-21T07:00:21.145Z,67.75
2024-03-21T07:03:46.368Z,67.99
2024-03-21T07:07:11.722Z,68.00
2024-03-21T07:10:36.944Z,68.13
2024-03-21T07:14:04.045Z,68.23
2024-03-21T07:17:29.025Z,68.23
2024-03-21T07:20:58.656Z,68.14
2024-03-21T07:24:24.059Z,68.29
2024-03-21T07:27:49.269Z,68.34
2024-03-21T07:31:14.362Z,68.39
2024-03-21T07:34:39.706Z,68.68
2024-03-21T07:38:05.119Z,68.56
2024-03-21T07:41:30.307Z,68.75
2024-03-21T07:44:55.836Z,68.98
2024-03-21T07:48:21.438Z,69.06
2024-03-21T07:51:48.611Z,68.96
2024-03-21T07:55:14.015Z,68.92
2024-03-21T07:58:39.096Z,69.27
2024-03-21T08:02:05.426Z,69.62
2024-03-21T08:05:30.378Z,69.34
2024-03-21T08:08:55.497Z,69.62
2024-03-21T08:12:20.552Z,69.40
2024-03-21T08:15:47.050Z,69.48
2024-03-21T08:19:12.406Z,69.55
2024-03-21T08:22:37.470Z,69.83
2024-03-21T08:26:06.483Z,69.73
2024-03-21T08:29:31.687Z,69.88
2024-03-21T08:32:56.748Z,70.10
2024-03-21T08:36:21.684Z,70.02
2024-03-21T08:39:46.752Z,70.38
2024-03-21T08:43:11.722Z,69.75
2024-03-21T08:46:36.708Z,69.97
2024-03-21T08:50:01.768Z,69.88
2024-03-21T08:53:26.716Z,69.98
2024-03-21T08:56:52.365Z,70.11
2024-03-21T09:00:19.720Z,69.68
2024-03-21T09:03:44.807Z,69.81
2024-03-21T09:07:10.710Z,70.09
2024-03-21T09:10:35.937Z,70.15
2024-03-21T09:14:02.936Z,70.27
2024-03-21T09:17:27.958Z,70.11
2024-03-21T09:20:53.074Z,70.35
2024-03-21T09:24:18.075Z,70.44
2024-03-21T09:27:43.158Z,70.43
2024-03-21T09:31:08.409Z,70.63
2024-03-21T09:34:33.484Z,70.84
2024-03-21T09:37:58.644Z,70.75
2024-03-21T09:41:23.939Z,70.78
2024-03-21T09:44:54.618Z,70.69
2024-03-21T09:48:19.932Z,71.15
2024-03-21T09:51:45.430Z,70.66
2024-03-21T09:55:15.497Z,70.62
2024-03-21T09:58:40.719Z,71.05
2024-03-21T10:02:09.849Z,70.85
2024-03-21T10:05:35.077Z,70.98
2024-03-21T10:09:01.007Z,70.88
2024-03-21T10:12:27.181Z,70.98
2024-03-21T10:15:52.363Z,70.81
2024-03-21T10:19:17.756Z,71.16
2024-03-21T10:22:48.427Z,71.03
2024-03-21T10:26:16.589Z,71.35
2024-03-21T10:29:42.513Z,71.27
2024-03-21T10:33:17.217Z,71.35
2024-03-21T10:36:42.831Z,70.98
2024-03-21T10:40:12.904Z,71.31
2024-03-21T10:43:41.721Z,71.36
2024-03-21T10:47:10.606Z,71.39
2024-03-21T10:50:35.844Z,71.22
2024-03-21T10:54:04.465Z,71.25
2024-03-21T10:57:29.536Z,71.28
2024-03-21T11:00:56.267Z,71.26
2024-03-21T11:04:21.159Z,71.02
2024-03-21T11:07:46.903Z,70.75
2024-03-21T11:11:12.387Z,70.62
2024-03-21T11:14:37.919Z,70.63
2024-03-21T11:18:03.538Z,70.30
2024-03-21T11:21:28.708Z,70.06
2024-03-21T11:24:53.856Z,69.93
2024-03-21T11:28:19.316Z,69.81
2024-03-21T11:31:45.612Z,69.74
2024-03-21T11:35:12.288Z,69.55
2024-03-21T11:38:37.941Z,69.19
2024-03-21T11:42:04.051Z,68.84
2024-03-21T11:45:29.816Z,68.67
2024-03-21T11:49:05.943Z,68.62
2024-03-21T11:52:31.344Z,68.63
2024-03-21T11:55:56.401Z,68.51
2024-03-21T11:59:23.010Z,68.32
2024-03-21T12:02:49.308Z,68.10
2024-03-21T12:06:14.669Z,68.07
2024-03-21T12:09:40.221Z,67.98
2024-03-21T12:13:05.984Z,67.98
2024-03-21T12:16:31.223Z,67.99
2024-03-21T12:19:56.221Z,67.89
2024-03-21T12:23:21.579Z,67.89
2024-03-21T12:26:47.189Z,67.85
2024-03-21T12:30:14.514Z,67.55
2024-03-21T12:33:39.770Z,67.54
2024-03-21T12:37:05.297Z,67.30
2024-03-21T12:40:30.600Z,67.44
2024-03-21T12:43:57.554Z,67.24
2024-03-21T12:47:23.040Z,67.13
2024-03-21T12:50:48.417Z,67.21
2024-03-21T12:54:14.033Z,67.12
2024-03-21T12:57:39.628Z,67.16
2024-03-21T13:01:05.084Z,67.04
2024-03-21T13:04:32.537Z,67.23
2024-03-21T13:07:57.828Z,67.16
2024-03-21T13:11:22.800Z,67.27
2024-03-21T13:14:48.168Z,67.38
2024-03-21T13:18:13.468Z,67.23
2024-03-21T13:21:38.685Z,67.30
2024-03-21T13:25:04.001Z,67.43
2024-03-21T13:28:29.185Z,67.34
2024-03-21T13:31:54.129Z,67.41
2024-03-21T13:35:20.770Z,67.21
2024-03-21T13:38:54.324Z,67.30
2024-03-21T13:42:19.680Z,67.27
2024-03-21T13:45:55.551Z,67.30
2024-03-21T13:49:20.855Z,67.35
2024-03-21T13:52:45.935Z,67.35
2024-03-21T13:56:11.107Z,67.64
2024-03-21T13:59:36.614Z,67.63
2024-03-21T14:03:02.458Z,67.57
2024-03-21T14:06:27.968Z,67.48
2024-03-21T14:09:53.357Z,67.57
2024-03-21T14:13:20.796Z,67.58
2024-03-21T14:16:45.805Z,67.59
2024-03-21T14:20:12.292Z,67.59
2024-03-21T14:23:37.587Z,67.66
2024-03-21T14:27:04.340Z,67.59
2024-03-21T14:30:29.790Z,67.65
2024-03-21T14:33:54.759Z,67.69
2024-03-21T14:37:19.974Z,67.50
2024-03-21T14:40:45.293Z,67.63
2024-03-21T14:44:11.517Z,67.73
2024-03-21T14:47:36.678Z,67.94
2024-03-21T14:51:01.763Z,67.91
2024-03-21T14:54:27.607Z,67.95
2024-03-21T14:57:53.450Z,68.14
2024-03-21T15:01:18.595Z,68.28
2024-03-21T15:04:43.992Z,68.46
2024-03-21T15:08:09.330Z,68.64
2024-03-21T15:11:34.801Z,68.76
2024-03-21T15:15:00.409Z,69.02
2024-03-21T15:18:25.801Z,69.09
2024-03-21T15:21:50.701Z,69.01
2024-03-21T15:25:16.637Z,69.25
2024-03-21T15:28:43.513Z,69.61
2024-03-21T15:32:09.507Z,69.79
2024-03-21T15:35:34.962Z,69.92
2024-03-21T15:39:00.346Z,70.03
2024-03-21T15:42:25.892Z,70.19
2024-03-21T15:45:51.211Z,70.32
2024-03-21T15:49:16.869Z,70.45
2024-03-21T15:52:41.807Z,70.45
2024-03-21T15:56:08.031Z,70.23
2024-03-21T15:59:33.263Z,70.14
2024-03-21T16:02:58.711Z,70.27
2024-03-21T16:06:26.696Z,70.34
2024-03-21T16:09:53.200Z,70.23
2024-03-21T16:13:21.116Z,70.28
2024-03-21T16:16:46.374Z,70.20
2024-03-21T16:20:13.203Z,70.23
2024-03-21T16:23:38.865Z,70.38
2024-03-21T16:27:04.246Z,70.55
2024-03-21T16:30:30.853Z,70.68
2024-03-21T16:33:56.015Z,70.91
2024-03-21T16:37:21.218Z,71.04
2024-03-21T16:40:48.565Z,71.31
2024-03-21T16:44:13.827Z,71.18
2024-03-21T16:47:39.413Z,71.15
2024-03-21T16:51:04.722Z,71.41
2024-03-21T16:54:30.269Z,71.49
2024-03-21T16:57:55.373Z,71.44
2024-03-21T17:01:20.758Z,71.55
2024-03-21T17:04:45.971Z,71.63
2024-03-21T17:08:11.025Z,71.70
2024-03-21T17:11:36.097Z,71.88
2024-03-21T17:15:01.232Z,71.81
2024-03-21T17:18:26.725Z,71.90
2024-03-21T17:21:51.783Z,71.92
2024-03-21T17:25:17.060Z,71.87
2024-03-21T17:28:42.469Z,72.02
2024-03-21T17:32:08.142Z,72.01
2024-03-21T17:35:33.758Z,72.04
2024-03-21T17:39:00.941Z,71.98
2024-03-21T17:42:26.243Z,72.06
2024-03-21T17:45:51.547Z,71.98
2024-03-21T17:49:19.066Z,72.15
2024-03-21T17:52:44.312Z,72.10
2024-03-21T17:56:09.245Z,72.21
2024-03-21T17:59:34.797Z,72.42
2024-03-21T18:03:00.136Z,72.51
2024-03-21T18:06:25.343Z,72.78
2024-03-21T18:09:50.398Z,72.93
2024-03-21T18:13:15.523Z,72.88
2024-03-21T18:16:40.502Z,73.03
2024-03-21T18:20:05.915Z,72.99
2024-03-21T18:23:31.073Z,73.10
2024-03-21T18:26:56.667Z,73.13
2024-03-21T18:30:21.721Z,73.12
2024-03-21T18:33:46.835Z,73.22
2024-03-21T18:37:11.843Z,73.15
2024-03-21T18:40:36.948Z,73.12
2024-03-21T18:44:02.353Z,73.33
2024-03-21T18:47:27.417Z,73.30
2024-03-21T18:50:55.008Z,73.50
2024-03-21T18:54:20.493Z,73.60
2024-03-21T18:57:45.931Z,73.66
2024-03-21T19:01:11.392Z,73.67
2024-03-21T19:04:36.486Z,73.71
2024-03-21T19:08:01.760Z,73.76
2024-03-21T19:11:27.110Z,73.78
2024-03-21T19:14:52.308Z,73.64
2024-03-21T19:18:17.726Z,73.92
2024-03-21T19:21:43.294Z,73.73
2024-03-21T19:25:09.851Z,73.83
2024-03-21T19:28:35.896Z,73.89
2024-03-21T19:32:02.849Z,73.82
2024-03-21T19:35:28.904Z,73.69
2024-03-21T19:38:55.547Z,73.84
2024-03-21T19:42:21.936Z,73.73
2024-03-21T19:45:47.015Z,73.91
2024-03-21T19:49:12.701Z,73.77
2024-03-21T19:52:38.118Z,73.79
2024-03-21T19:56:04.888Z,73.95
2024-03-21T19:59:29.864Z,74.05
2024-03-21T20:02:55.128Z,74.27
2024-03-21T20:06:20.668Z,74.21
2024-03-21T20:09:45.908Z,74.06
2024-03-21T20:13:11.114Z,74.25
2024-03-21T20:16:36.667Z,74.48
2024-03-21T20:20:01.930Z,74.42
2024-03-21T20:23:27.850Z,74.18
2024-03-21T20:26:53.499Z,74.35
2024-03-21T20:30:18.705Z,74.37
2024-03-21T20:33:45.889Z,74.28
2024-03-21T20:37:11.379Z,74.46
2024-03-21T20:40:37.119Z,74.22
2024-03-21T20:44:02.354Z,74.14
2024-03-21T20:47:29.515Z,74.43
2024-03-21T20:51:10.491Z,74.15
2024-03-21T20:54:35.723Z,74.31
2024-03-21T20:58:00.987Z,74.05
2024-03-21T21:01:26.211Z,74.10
2024-03-21T21:04:52.873Z,74.06
2024-03-21T21:08:18.115Z,73.98
2024-03-21T21:11:44.618Z,74.04
2024-03-21T21:15:11.332Z,74.23
2024-03-21T21:18:36.756Z,74.20
2024-03-21T21:22:01.995Z,74.35
2024-03-21T21:25:26.999Z,74.30
2024-03-21T21:28:52.134Z,74.22
2024-03-21T21:32:17.334Z,74.46
2024-03-21T21:35:42.830Z,74.39
2024-03-21T21:39:08.339Z,74.46
2024-03-21T21:42:33.444Z,74.42
2024-03-21T21:45:58.721Z,74.21
2024-03-21T21:49:23.939Z,74.04
2024-03-21T21:52:50.743Z,74.17
2024-03-21T21:56:17.710Z,74.14
2024-03-21T21:59:45.134Z,74.10
2024-03-21T22:03:09.865Z,74.10
2024-03-21T22:06:35.252Z,74.02
2024-03-21T22:10:00.595Z,73.86
2024-03-21T22:13:26.085Z,74.01
2024-03-21T22:16:51.432Z,73.90
2024-03-21T22:20:17.330Z,73.88
2024-03-21T22:23:45.957Z,74.09
2024-03-21T22:27:10.954Z,74.16
2024-03-21T22:30:36.163Z,74.29
2024-03-21T22:34:01.549Z,74.30
2024-03-21T22:37:27.899Z,74.36
2024-03-21T22:40:53.949Z,74.27
2024-03-21T22:44:18.938Z,74.06
2024-03-21T22:47:44.290Z,74.27
2024-03-21T22:51:12.122Z,74.13
2024-03-21T22:54:37.840Z,74.27
2024-03-21T22:58:02.998Z,74.23
2024-03-21T23:01:28.038Z,74.11
2024-03-21T23:04:53.183Z,73.99
2024-03-21T23:08:18.473Z,74.00
2024-03-21T23:11:43.714Z,74.04
2024-03-21T23:15:11.720Z,73.93
2024-03-21T23:18:36.786Z,73.84
2024-03-21T23:22:01.839Z,73.84
2024-03-21T23:25:27.112Z,73.97
2024-03-21T23:28:51.999Z,73.95
2024-03-21T23:32:16.823Z,73.79
2024-03-21T23:35:42.041Z,73.79
2024-03-21T23:39:07.738Z,73.86
2024-03-21T23:42:33.476Z,73.77
2024-03-21T23:45:58.815Z,73.79
2024-03-21T23:49:23.785Z,73.82
2024-03-21T23:52:48.806Z,73.89
2024-03-21T23:56:13.839Z,74.08
2024-03-21T23:59:42.614Z,74.11
